Terminal Aerodrome Forecast
Issued by NWS Quad Cities IA IL

Home | Current Version | Previous Version | Text Only | Print | Product List | Glossary On
Versions: 1 2 3 4 5 6 7 8 9 10 11 12 13 14 15 16 17 18 19 20 21 22 23 24 25 26 27 28 29 30 31 32 33 34 35 36
000
FTUS43 KDVN 181141
TAFDBQ
TAF
KDBQ 181141Z 1812/1912 08012KT P6SM OVC060
     FM181400 05014G22KT 3SM FZRAPL BR VCTS OVC015CB
     FM181600 02014G21KT 1/2SM SN OVC005
     FM182100 35016G22KT 2SM -SN BR OVC008
     FM190100 33012G19KT P6SM VCSH BKN015
     FM190400 31010KT P6SM BKN025=

USA.gov is the U.S. government's official web portal to all federal, state and local government web resources and services.